Time;durP1;ratioP1;P1;durP2;ratioP2;P2;SDS_P1;SDS_P2;PMS_P1;PMS_P2;Temp;Humidity;BMP_temperature;BMP_pressure;BME280_temperature;BME280_humidity;BME280_pressure;Samples;Min_cycle;Max_cycle;Signal;HPM_P1;HPM_P2
2024/04/12 00:01:16;;;;;;;36.45;24.25;;;;;;;;;;5493961;26;20236;-70
2024/04/12 00:03:43;;;;;;;33.28;23.00;;;;;;;;;;5462043;26;20236;-70
2024/04/12 00:06:15;;;;;;;32.92;24.90;;;;;;;;;;5480612;26;20296;-70
2024/04/12 00:08:48;;;;;;;35.78;23.73;;;;;;;;;;5466544;26;20713;-70
2024/04/12 00:11:18;;;;;;;36.92;23.80;;;;;;;;;;5471614;26;20586;-70
2024/04/12 00:13:45;;;;;;;37.25;22.80;;;;;;;;;;5458662;26;20299;-70
2024/04/12 00:16:11;;;;;;;36.33;23.63;;;;;;;;;;5457567;26;20605;-70
2024/04/12 00:18:37;;;;;;;31.17;23.45;;;;;;;;;;5447102;26;20701;-70
2024/04/12 00:21:05;;;;;;;30.00;22.00;;;;;;;;;;5469749;26;20686;-70
2024/04/12 00:23:31;;;;;;;30.92;21.92;;;;;;;;;;5468398;26;20584;-70
2024/04/12 00:26:00;;;;;;;33.88;22.50;;;;;;;;;;5445651;26;20285;-70
2024/04/12 00:28:36;;;;;;;29.00;22.70;;;;;;;;;;5447638;26;20241;-71
2024/04/12 00:31:05;;;;;;;31.83;22.25;;;;;;;;;;5474284;26;20279;-69
2024/04/12 00:33:33;;;;;;;30.52;22.50;;;;;;;;;;5444714;26;20242;-70
2024/04/12 00:36:12;;;;;;;32.47;21.20;;;;;;;;;;5463045;26;20885;-71
2024/04/12 00:38:41;;;;;;;30.10;21.35;;;;;;;;;;5469930;26;20412;-71
2024/04/12 00:41:18;;;;;;;30.85;20.80;;;;;;;;;;5452671;26;20286;-70
2024/04/12 00:43:51;;;;;;;31.35;20.60;;;;;;;;;;5469042;26;20236;-69
2024/04/12 00:46:23;;;;;;;30.52;21.80;;;;;;;;;;5443835;26;20700;-69
2024/04/12 00:48:53;;;;;;;30.50;20.75;;;;;;;;;;5482444;26;20321;-70
2024/04/12 00:51:27;;;;;;;30.38;20.92;;;;;;;;;;5464002;26;20338;-70
2024/04/12 00:53:57;;;;;;;29.50;21.08;;;;;;;;;;5481491;26;20768;-70
2024/04/12 00:56:27;;;;;;;29.73;20.63;;;;;;;;;;5452997;26;20284;-70
2024/04/12 00:58:59;;;;;;;30.75;21.75;;;;;;;;;;5458655;26;20769;-70
2024/04/12 01:01:25;;;;;;;28.85;21.98;;;;;;;;;;5473342;26;20279;-70
2024/04/12 01:03:55;;;;;;;30.35;21.92;;;;;;;;;;5500476;26;20227;-70
2024/04/12 01:06:26;;;;;;;28.50;19.77;;;;;;;;;;5472207;26;20260;-71
2024/04/12 01:08:54;;;;;;;31.00;20.90;;;;;;;;;;5493296;26;20270;-71
2024/04/12 01:11:21;;;;;;;29.85;21.60;;;;;;;;;;5475306;26;20264;-70
2024/04/12 01:13:50;;;;;;;28.20;20.77;;;;;;;;;;5475688;26;20631;-70
2024/04/12 01:16:16;;;;;;;28.65;19.65;;;;;;;;;;5480352;25;20233;-70
2024/04/12 01:18:44;;;;;;;25.98;18.98;;;;;;;;;;5463264;26;20686;-70
2024/04/12 01:21:10;;;;;;;28.70;19.85;;;;;;;;;;5471954;26;20634;-70
2024/04/12 01:23:43;;;;;;;29.75;19.48;;;;;;;;;;5482149;26;20274;-69
2024/04/12 01:26:10;;;;;;;26.90;19.63;;;;;;;;;;5461835;25;20268;-70
2024/04/12 01:28:43;;;;;;;29.10;20.10;;;;;;;;;;5442732;26;20272;-70
2024/04/12 01:31:17;;;;;;;34.78;19.17;;;;;;;;;;5445936;26;20817;-70
2024/04/12 01:33:50;;;;;;;26.33;18.15;;;;;;;;;;5462562;26;20721;-70
2024/04/12 01:36:21;;;;;;;30.23;18.75;;;;;;;;;;5481532;26;20232;-69
2024/04/12 01:38:57;;;;;;;30.15;18.85;;;;;;;;;;5482780;26;20240;-70
2024/04/12 01:41:27;;;;;;;27.95;18.95;;;;;;;;;;5468069;26;20266;-70
2024/04/12 01:43:52;;;;;;;27.30;18.30;;;;;;;;;;5488402;25;20275;-70
2024/04/12 01:46:26;;;;;;;27.77;18.90;;;;;;;;;;5499154;25;20236;-70
2024/04/12 01:48:54;;;;;;;27.33;17.75;;;;;;;;;;5489240;26;20284;-70
2024/04/12 01:51:23;;;;;;;26.20;18.77;;;;;;;;;;5475751;26;20332;-70
2024/04/12 01:53:54;;;;;;;27.60;18.65;;;;;;;;;;5459058;26;20288;-70
2024/04/12 01:56:22;;;;;;;30.05;18.20;;;;;;;;;;5481468;25;20802;-70
2024/04/12 01:58:49;;;;;;;27.15;17.92;;;;;;;;;;5457294;26;20234;-70
2024/04/12 02:01:16;;;;;;;25.58;18.27;;;;;;;;;;5483476;26;20594;-69
2024/04/12 02:03:44;;;;;;;27.05;18.17;;;;;;;;;;5481836;26;20236;-70
2024/04/12 02:06:15;;;;;;;27.90;18.33;;;;;;;;;;5467398;25;20242;-70
2024/04/12 02:08:42;;;;;;;24.75;18.58;;;;;;;;;;5511331;26;20243;-70
2024/04/12 02:11:08;;;;;;;25.90;18.05;;;;;;;;;;5459387;26;20273;-69
2024/04/12 02:13:37;;;;;;;26.33;18.35;;;;;;;;;;5472484;26;20648;-69
2024/04/12 02:16:04;;;;;;;26.63;18.20;;;;;;;;;;5461888;26;20354;-70
2024/04/12 02:18:33;;;;;;;26.77;17.08;;;;;;;;;;5446352;26;20257;-71
2024/04/12 02:21:06;;;;;;;25.90;18.05;;;;;;;;;;5450476;26;20330;-70
2024/04/12 02:23:32;;;;;;;26.08;17.85;;;;;;;;;;5477908;26;20878;-71
2024/04/12 02:25:59;;;;;;;27.17;18.45;;;;;;;;;;5493766;26;20236;-71
2024/04/12 02:28:26;;;;;;;28.98;18.85;;;;;;;;;;5478888;26;20244;-71
2024/04/12 02:30:54;;;;;;;27.25;19.17;;;;;;;;;;5491060;25;20225;-71
2024/04/12 02:33:27;;;;;;;25.83;17.60;;;;;;;;;;5489069;26;20243;-70
2024/04/12 02:36:00;;;;;;;26.02;17.73;;;;;;;;;;5477576;25;20268;-71
2024/04/12 02:38:28;;;;;;;28.15;18.38;;;;;;;;;;5470620;26;20267;-71
2024/04/12 02:40:57;;;;;;;27.90;19.23;;;;;;;;;;5488621;26;20242;-71
2024/04/12 02:43:24;;;;;;;32.28;19.30;;;;;;;;;;5470590;26;20246;-70
2024/04/12 02:45:57;;;;;;;26.63;18.80;;;;;;;;;;5490262;26;20230;-70
2024/04/12 02:48:23;;;;;;;28.25;19.67;;;;;;;;;;5490194;25;20697;-72
2024/04/12 02:50:59;;;;;;;27.83;19.08;;;;;;;;;;5429123;26;20242;-71
2024/04/12 02:53:26;;;;;;;31.27;20.10;;;;;;;;;;5484428;26;20650;-71
2024/04/12 02:56:01;;;;;;;27.98;19.90;;;;;;;;;;5474860;26;20280;-71
2024/04/12 02:58:39;;;;;;;30.63;19.83;;;;;;;;;;5468563;26;20319;-70
2024/04/12 03:01:22;;;;;;;32.28;20.60;;;;;;;;;;5482360;26;20234;-71
2024/04/12 03:03:55;;;;;;;30.58;20.50;;;;;;;;;;5447110;26;20234;-71
2024/04/12 03:06:23;;;;;;;30.33;20.33;;;;;;;;;;5476602;26;20287;-71
2024/04/12 03:08:51;;;;;;;31.25;20.88;;;;;;;;;;5476364;26;20271;-70
2024/04/12 03:11:33;;;;;;;31.35;20.85;;;;;;;;;;5471355;26;20249;-71
2024/04/12 03:14:08;;;;;;;33.15;20.65;;;;;;;;;;5476991;25;20246;-71
2024/04/12 03:16:38;;;;;;;31.60;20.67;;;;;;;;;;5477489;26;20236;-71
2024/04/12 03:19:10;;;;;;;28.40;19.42;;;;;;;;;;5492938;26;20262;-70
2024/04/12 03:21:37;;;;;;;30.83;20.52;;;;;;;;;;5467865;26;20727;-69
2024/04/12 03:24:04;;;;;;;31.45;19.95;;;;;;;;;;5499101;26;20319;-70
2024/04/12 03:26:31;;;;;;;31.55;20.30;;;;;;;;;;5475382;26;20743;-70
2024/04/12 03:28:59;;;;;;;32.92;20.92;;;;;;;;;;5479159;26;20240;-69
2024/04/12 03:31:26;;;;;;;29.67;20.60;;;;;;;;;;5484209;26;20247;-70
2024/04/12 03:33:54;;;;;;;31.17;20.77;;;;;;;;;;5482283;26;20292;-70
2024/04/12 03:36:28;;;;;;;32.10;21.30;;;;;;;;;;5472533;26;20725;-69
2024/04/12 03:39:28;;;;;;;33.92;21.63;;;;;;;;;;5469659;26;20232;-69
2024/04/12 03:41:46;;;;;;;34.90;21.23;;;;;;;;;;5469501;26;20262;-71
2024/04/12 03:44:18;;;;;;;30.77;21.27;;;;;;;;;;5456840;26;20238;-71
2024/04/12 03:46:47;;;;;;;31.75;21.45;;;;;;;;;;5460056;26;20249;-69
2024/04/12 03:49:15;;;;;;;35.88;21.45;;;;;;;;;;5478469;26;21174;-70
2024/04/12 03:51:46;;;;;;;31.98;21.73;;;;;;;;;;5479558;26;20556;-70
2024/04/12 03:54:18;;;;;;;32.50;21.75;;;;;;;;;;5475988;25;20252;-70
2024/04/12 03:56:51;;;;;;;31.55;21.50;;;;;;;;;;5475396;26;20799;-70
2024/04/12 03:59:18;;;;;;;33.63;21.95;;;;;;;;;;5482370;26;20347;-70
2024/04/12 04:01:44;;;;;;;34.85;22.10;;;;;;;;;;5459605;26;20233;-70
2024/04/12 04:04:17;;;;;;;35.58;22.48;;;;;;;;;;5470506;26;20267;-71
2024/04/12 04:06:48;;;;;;;31.33;21.73;;;;;;;;;;5495428;26;20329;-70
2024/04/12 04:09:20;;;;;;;34.20;22.42;;;;;;;;;;5473910;26;20349;-70
2024/04/12 04:11:47;;;;;;;33.55;22.58;;;;;;;;;;5489550;26;20271;-70
2024/04/12 04:14:13;;;;;;;34.10;22.88;;;;;;;;;;5459853;26;20688;-70
2024/04/12 04:16:42;;;;;;;32.05;21.65;;;;;;;;;;5498896;26;20264;-70
2024/04/12 04:19:12;;;;;;;34.10;22.27;;;;;;;;;;5498905;26;20700;-69
2024/04/12 04:21:41;;;;;;;34.58;22.75;;;;;;;;;;5512126;26;20239;-70
2024/04/12 04:24:10;;;;;;;37.95;23.13;;;;;;;;;;5468143;25;20711;-68
2024/04/12 04:26:36;;;;;;;33.88;21.77;;;;;;;;;;5463640;26;20677;-69
2024/04/12 04:29:03;;;;;;;34.38;22.60;;;;;;;;;;5480219;26;20266;-70
2024/04/12 04:31:50;;;;;;;33.35;21.98;;;;;;;;;;5494883;26;20224;-71
2024/04/12 04:34:17;;;;;;;29.40;19.92;;;;;;;;;;5477443;26;20244;-69
2024/04/12 04:36:50;;;;;;;29.75;19.73;;;;;;;;;;5450672;26;20254;-68
2024/04/12 04:39:16;;;;;;;29.33;19.10;;;;;;;;;;5447227;26;21851;-71
2024/04/12 04:41:53;;;;;;;27.92;18.58;;;;;;;;;;5460814;26;20269;-70
2024/04/12 04:44:19;;;;;;;29.50;18.30;;;;;;;;;;5447060;26;20264;-69
2024/04/12 04:46:53;;;;;;;28.35;18.52;;;;;;;;;;5464432;26;20299;-69
2024/04/12 04:49:23;;;;;;;31.15;19.27;;;;;;;;;;5477065;26;20267;-70
2024/04/12 04:51:49;;;;;;;30.58;18.00;;;;;;;;;;5489753;26;20332;-69
2024/04/12 04:54:15;;;;;;;28.98;18.08;;;;;;;;;;5469970;26;20245;-70
2024/04/12 04:56:45;;;;;;;25.13;17.75;;;;;;;;;;5445481;26;20876;-70
2024/04/12 04:59:18;;;;;;;28.20;17.85;;;;;;;;;;5457881;26;20302;-69
2024/04/12 05:01:48;;;;;;;26.80;17.90;;;;;;;;;;5474861;25;20279;-70
2024/04/12 05:04:19;;;;;;;26.20;17.38;;;;;;;;;;5498475;26;20370;-70
2024/04/12 05:06:47;;;;;;;27.80;18.70;;;;;;;;;;5497818;26;20330;-70
2024/04/12 05:09:18;;;;;;;25.83;18.30;;;;;;;;;;5500860;26;20364;-70
2024/04/12 05:11:44;;;;;;;25.63;17.40;;;;;;;;;;5490405;26;20292;-70
2024/04/12 05:14:44;;;;;;;28.88;18.23;;;;;;;;;;5480238;26;20590;-71
2024/04/12 05:17:09;;;;;;;28.73;18.73;;;;;;;;;;5466873;26;20278;-70
2024/04/12 05:19:40;;;;;;;24.38;17.30;;;;;;;;;;5475711;26;20261;-70
2024/04/12 05:22:13;;;;;;;27.45;18.30;;;;;;;;;;5479783;26;20285;-70
2024/04/12 05:24:42;;;;;;;26.77;18.55;;;;;;;;;;5471904;26;20238;-70
2024/04/12 05:27:11;;;;;;;26.65;17.58;;;;;;;;;;5455243;26;20241;-70
2024/04/12 05:29:37;;;;;;;30.08;19.15;;;;;;;;;;5459358;26;20285;-69
2024/04/12 05:32:06;;;;;;;24.55;18.10;;;;;;;;;;5485495;26;20267;-70
2024/04/12 05:34:32;;;;;;;25.33;18.45;;;;;;;;;;5495719;26;20236;-70
2024/04/12 05:37:03;;;;;;;24.65;17.83;;;;;;;;;;5455700;26;20249;-70
2024/04/12 05:39:35;;;;;;;25.63;18.40;;;;;;;;;;5468366;26;20253;-69
2024/04/12 05:42:02;;;;;;;23.08;17.40;;;;;;;;;;5450220;26;20234;-70
2024/04/12 05:44:27;;;;;;;21.85;17.02;;;;;;;;;;5481400;26;20232;-70
2024/04/12 05:46:53;;;;;;;24.65;18.17;;;;;;;;;;5462051;26;20632;-70
2024/04/12 05:49:20;;;;;;;19.85;15.85;;;;;;;;;;5448499;26;20363;-70
2024/04/12 05:51:47;;;;;;;23.10;15.25;;;;;;;;;;5484209;26;20333;-70
2024/04/12 05:54:15;;;;;;;20.98;15.30;;;;;;;;;;5466603;26;20792;-70
2024/04/12 05:56:46;;;;;;;19.60;14.80;;;;;;;;;;5480722;26;20248;-70
2024/04/12 05:59:13;;;;;;;18.83;14.35;;;;;;;;;;5484273;26;20236;-70
2024/04/12 06:01:46;;;;;;;17.40;13.73;;;;;;;;;;5475188;26;20267;-70
2024/04/12 06:04:19;;;;;;;20.20;13.30;;;;;;;;;;5472784;26;20242;-72
2024/04/12 06:06:46;;;;;;;18.60;13.52;;;;;;;;;;5459843;26;20267;-70
2024/04/12 06:09:21;;;;;;;22.00;14.35;;;;;;;;;;5460384;26;20321;-69
2024/04/12 06:11:56;;;;;;;19.92;14.68;;;;;;;;;;5466771;26;20710;-68
2024/04/12 06:14:26;;;;;;;21.45;14.18;;;;;;;;;;5477079;26;20232;-70
2024/04/12 06:16:55;;;;;;;20.48;14.13;;;;;;;;;;5474387;26;20234;-71
2024/04/12 06:19:21;;;;;;;19.30;14.80;;;;;;;;;;5464421;26;20269;-70
2024/04/12 06:21:48;;;;;;;20.38;14.55;;;;;;;;;;5448789;26;20238;-72
2024/04/12 06:24:29;;;;;;;18.77;13.93;;;;;;;;;;5479819;26;20431;-71
2024/04/12 06:26:57;;;;;;;23.35;15.15;;;;;;;;;;5485448;26;20241;-70
2024/04/12 06:29:26;;;;;;;21.30;14.93;;;;;;;;;;5453970;26;20245;-70
2024/04/12 06:31:53;;;;;;;22.33;15.30;;;;;;;;;;5477752;26;20235;-70
2024/04/12 06:34:19;;;;;;;22.30;15.60;;;;;;;;;;5464412;26;20690;-70
2024/04/12 06:36:56;;;;;;;21.77;14.85;;;;;;;;;;5463386;26;20325;-70
2024/04/12 06:39:26;;;;;;;20.70;14.38;;;;;;;;;;5476424;26;20585;-71
2024/04/12 06:41:57;;;;;;;23.00;15.07;;;;;;;;;;5451885;26;20246;-70
2024/04/12 06:44:24;;;;;;;19.52;13.80;;;;;;;;;;5449821;26;20230;-71
2024/04/12 06:47:00;;;;;;;20.77;14.32;;;;;;;;;;5451529;26;20271;-70
2024/04/12 06:49:29;;;;;;;18.95;14.20;;;;;;;;;;5493460;25;20247;-71
2024/04/12 06:54:41;;;;;;;18.70;13.98;;;;;;;;;;5488923;26;20241;-71
2024/04/12 06:57:17;;;;;;;22.45;14.80;;;;;;;;;;5453760;26;20230;-70
2024/04/12 06:59:46;;;;;;;18.17;13.80;;;;;;;;;;5476286;26;20236;-71
2024/04/12 07:02:14;;;;;;;20.42;14.25;;;;;;;;;;5474453;26;20281;-70
2024/04/12 07:04:40;;;;;;;17.38;13.32;;;;;;;;;;5466447;26;20274;-71
2024/04/12 07:07:06;;;;;;;18.45;13.15;;;;;;;;;;5451748;26;20386;-71
2024/04/12 07:09:32;;;;;;;16.65;12.20;;;;;;;;;;5463650;26;20896;-70
2024/04/12 07:12:02;;;;;;;18.38;12.50;;;;;;;;;;5461819;26;20410;-70
2024/04/12 07:14:27;;;;;;;20.88;12.50;;;;;;;;;;5477007;26;20651;-70
2024/04/12 07:16:53;;;;;;;18.23;12.63;;;;;;;;;;5456238;26;20242;-71
2024/04/12 07:19:23;;;;;;;17.48;12.25;;;;;;;;;;5457138;26;20249;-71
2024/04/12 07:21:54;;;;;;;18.00;12.52;;;;;;;;;;5460581;26;20704;-70
2024/04/12 07:24:22;;;;;;;17.23;12.27;;;;;;;;;;5482114;26;20228;-71
2024/04/12 07:26:48;;;;;;;15.88;11.60;;;;;;;;;;5480250;26;20303;-71
2024/04/12 07:29:14;;;;;;;17.13;11.55;;;;;;;;;;5461866;26;20240;-71
2024/04/12 07:31:39;;;;;;;16.55;11.63;;;;;;;;;;5479430;26;20237;-70
2024/04/12 07:34:05;;;;;;;17.50;11.23;;;;;;;;;;5475714;26;20284;-71
2024/04/12 07:36:31;;;;;;;16.58;12.68;;;;;;;;;;5466349;26;20249;-71
2024/04/12 07:39:03;;;;;;;15.50;11.80;;;;;;;;;;5479757;26;20329;-71
2024/04/12 07:41:31;;;;;;;17.15;12.15;;;;;;;;;;5469795;26;20284;-73
2024/04/12 07:43:57;;;;;;;20.48;11.80;;;;;;;;;;5447847;26;20237;-71
2024/04/12 07:46:27;;;;;;;16.02;11.65;;;;;;;;;;5458607;26;20300;-71
2024/04/12 07:48:57;;;;;;;15.65;11.30;;;;;;;;;;5467476;26;20298;-71
2024/04/12 07:51:31;;;;;;;15.15;11.65;;;;;;;;;;5451148;26;20407;-71
2024/04/12 07:54:03;;;;;;;17.63;11.85;;;;;;;;;;5452210;26;20639;-71
2024/04/12 07:56:37;;;;;;;16.25;11.90;;;;;;;;;;5458480;26;20234;-71
2024/04/12 07:59:13;;;;;;;18.00;13.02;;;;;;;;;;5472820;26;20715;-72
2024/04/12 08:01:40;;;;;;;18.58;11.90;;;;;;;;;;5462432;26;20292;-70
2024/04/12 08:04:05;;;;;;;18.40;11.85;;;;;;;;;;5474542;26;20755;-71
2024/04/12 08:06:55;;;;;;;17.95;11.98;;;;;;;;;;5445893;26;20237;-70
2024/04/12 08:09:42;;;;;;;16.15;11.85;;;;;;;;;;5462935;26;20242;-71
2024/04/12 08:12:27;;;;;;;18.48;12.52;;;;;;;;;;5454807;26;20249;-71
2024/04/12 08:14:52;;;;;;;18.08;12.85;;;;;;;;;;5475699;26;20236;-70
2024/04/12 08:17:27;;;;;;;16.42;12.73;;;;;;;;;;5463718;26;20233;-71
2024/04/12 08:19:55;;;;;;;18.85;13.30;;;;;;;;;;5450438;26;20291;-71
2024/04/12 08:22:27;;;;;;;18.38;12.55;;;;;;;;;;5453952;26;20678;-70
2024/04/12 08:24:54;;;;;;;17.63;12.30;;;;;;;;;;5455240;26;20753;-71
2024/04/12 08:27:30;;;;;;;20.95;12.63;;;;;;;;;;5452561;26;20285;-71
2024/04/12 08:29:55;;;;;;;19.55;12.75;;;;;;;;;;5462446;26;20274;-71
2024/04/12 08:32:39;;;;;;;20.10;13.25;;;;;;;;;;5458272;26;20233;-72
2024/04/12 08:35:08;;;;;;;18.02;12.60;;;;;;;;;;5454902;26;20247;-71
2024/04/12 08:37:37;;;;;;;18.15;13.20;;;;;;;;;;5461239;26;20299;-71
2024/04/12 08:40:08;;;;;;;17.30;12.63;;;;;;;;;;5451893;26;20911;-72
2024/04/12 08:42:34;;;;;;;18.83;13.77;;;;;;;;;;5473068;25;20253;-72
2024/04/12 08:45:12;;;;;;;19.08;13.90;;;;;;;;;;5474654;26;20325;-71
2024/04/12 08:48:02;;;;;;;19.35;14.25;;;;;;;;;;5449136;26;20246;-71
2024/04/12 08:50:31;;;;;;;19.42;13.25;;;;;;;;;;5463280;26;20340;-72
2024/04/12 08:52:58;;;;;;;18.92;13.48;;;;;;;;;;5455138;26;20242;-71
2024/04/12 08:55:24;;;;;;;17.23;13.05;;;;;;;;;;5467103;26;20233;-71
2024/04/12 08:58:01;;;;;;;18.05;13.63;;;;;;;;;;5471449;26;20226;-71
2024/04/12 09:00:31;;;;;;;21.95;14.50;;;;;;;;;;5451703;26;20243;-72
2024/04/12 09:03:02;;;;;;;19.05;13.75;;;;;;;;;;5488325;26;20240;-71
2024/04/12 09:05:35;;;;;;;19.83;13.80;;;;;;;;;;5500122;26;20707;-71
2024/04/12 09:08:03;;;;;;;17.88;13.00;;;;;;;;;;5420961;26;20293;-71
2024/04/12 09:10:36;;;;;;;19.17;13.77;;;;;;;;;;5481189;26;20771;-71
2024/04/12 09:13:07;;;;;;;18.50;13.30;;;;;;;;;;5457456;26;20345;-71
2024/04/12 09:15:41;;;;;;;15.98;13.38;;;;;;;;;;5480909;25;20992;-73
2024/04/12 09:18:17;;;;;;;16.48;12.93;;;;;;;;;;5461007;26;20284;-72
2024/04/12 09:20:44;;;;;;;18.02;13.98;;;;;;;;;;5470862;26;20233;-71
2024/04/12 09:23:14;;;;;;;23.42;13.98;;;;;;;;;;5460931;26;20472;-72
2024/04/12 09:25:55;;;;;;;20.02;13.88;;;;;;;;;;5475776;26;20280;-72
2024/04/12 09:28:30;;;;;;;20.85;14.15;;;;;;;;;;5481452;26;20306;-72
2024/04/12 09:33:50;;;;;;;19.25;13.63;;;;;;;;;;5475266;26;20331;-72
2024/04/12 09:36:39;;;;;;;22.00;13.13;;;;;;;;;;5465114;26;20661;-72
2024/04/12 09:39:14;;;;;;;17.88;11.90;;;;;;;;;;5468558;26;20743;-71
2024/04/12 09:41:53;;;;;;;17.38;12.55;;;;;;;;;;5467049;26;20712;-70
2024/04/12 09:44:38;;;;;;;17.52;12.15;;;;;;;;;;5474242;26;20241;-72
2024/04/12 10:39:44;;;;;;;15.70;8.98;;;;;;;;;;5455881;26;20704;-71
2024/04/12 10:42:13;;;;;;;13.65;8.45;;;;;;;;;;5478314;26;20253;-70
2024/04/12 10:44:46;;;;;;;16.48;8.23;;;;;;;;;;5480683;26;20241;-71
2024/04/12 10:47:12;;;;;;;11.65;8.18;;;;;;;;;;5461306;26;20237;-71
2024/04/12 10:49:42;;;;;;;13.38;8.27;;;;;;;;;;5449748;26;20680;-71
2024/04/12 10:52:08;;;;;;;13.95;8.55;;;;;;;;;;5462567;26;20653;-71
2024/04/12 10:54:34;;;;;;;13.70;8.27;;;;;;;;;;5446461;26;20229;-71
2024/04/12 10:57:02;;;;;;;13.98;7.55;;;;;;;;;;5452130;26;20234;-71
2024/04/12 10:59:28;;;;;;;13.00;7.45;;;;;;;;;;5472896;26;20225;-71
2024/04/12 11:01:59;;;;;;;13.77;8.05;;;;;;;;;;5460722;26;20280;-70
2024/04/12 11:04:28;;;;;;;15.95;7.20;;;;;;;;;;5447827;26;20298;-71
2024/04/12 11:06:54;;;;;;;15.23;7.10;;;;;;;;;;5471630;26;20680;-71
2024/04/12 11:09:30;;;;;;;11.73;6.80;;;;;;;;;;5481468;26;20252;-71
2024/04/12 11:12:00;;;;;;;10.85;6.15;;;;;;;;;;5463459;26;20716;-70
2024/04/12 11:14:27;;;;;;;11.63;6.53;;;;;;;;;;5445154;26;20245;-71
2024/04/12 11:33:31;;;;;;;12.43;6.22;;;;;;;;;;5460540;26;20245;-71
2024/04/12 11:36:01;;;;;;;14.60;5.82;;;;;;;;;;5453704;26;20276;-71
2024/04/12 11:38:27;;;;;;;14.18;6.25;;;;;;;;;;5459761;26;20671;-71
2024/04/12 11:40:56;;;;;;;12.65;5.25;;;;;;;;;;5479556;26;20327;-70
2024/04/12 11:43:22;;;;;;;11.80;5.70;;;;;;;;;;5471622;26;20288;-71
2024/04/12 11:45:48;;;;;;;6.88;4.55;;;;;;;;;;5450104;26;20293;-71
2024/04/12 11:48:14;;;;;;;11.73;4.78;;;;;;;;;;5475454;26;20241;-72
2024/04/12 11:50:41;;;;;;;13.32;4.75;;;;;;;;;;5463155;26;20591;-70
2024/04/12 11:53:10;;;;;;;11.98;4.60;;;;;;;;;;5473604;26;20273;-72
2024/04/12 11:55:39;;;;;;;10.77;4.38;;;;;;;;;;5469860;26;20263;-72
2024/04/12 11:58:08;;;;;;;6.65;4.00;;;;;;;;;;5467295;26;20816;-70
2024/04/12 12:00:37;;;;;;;10.00;4.53;;;;;;;;;;5456112;26;20241;-70
2024/04/12 12:03:03;;;;;;;9.60;4.50;;;;;;;;;;5448821;26;20337;-70
2024/04/12 12:05:28;;;;;;;10.13;4.03;;;;;;;;;;5453895;26;20290;-70
2024/04/12 12:07:54;;;;;;;8.32;4.82;;;;;;;;;;5447377;26;20242;-69
2024/04/12 12:10:19;;;;;;;12.32;4.43;;;;;;;;;;5474987;26;20272;-72
2024/04/12 12:12:45;;;;;;;10.82;4.20;;;;;;;;;;5460608;26;20698;-70
2024/04/12 12:15:14;;;;;;;7.88;4.65;;;;;;;;;;5473051;26;20297;-70
2024/04/12 12:17:40;;;;;;;10.05;4.30;;;;;;;;;;5473956;26;20246;-70
2024/04/12 12:20:06;;;;;;;7.60;4.03;;;;;;;;;;5467584;26;20287;-69
2024/04/12 12:22:32;;;;;;;11.68;4.68;;;;;;;;;;5477020;26;20346;-71
2024/04/12 12:24:58;;;;;;;8.50;3.70;;;;;;;;;;5447373;26;20230;-70
2024/04/12 12:27:23;;;;;;;9.85;4.03;;;;;;;;;;5456616;26;20857;-71
2024/04/12 12:29:51;;;;;;;7.53;3.88;;;;;;;;;;5460970;26;20233;-70
2024/04/12 12:32:19;;;;;;;7.88;3.70;;;;;;;;;;5474707;26;20279;-70
2024/04/12 12:34:46;;;;;;;6.53;3.42;;;;;;;;;;5461130;26;20678;-70
2024/04/12 12:37:12;;;;;;;5.57;2.95;;;;;;;;;;5461438;26;20234;-70
2024/04/12 12:39:38;;;;;;;8.43;3.50;;;;;;;;;;5461649;26;20423;-72
2024/04/12 12:42:05;;;;;;;6.50;3.25;;;;;;;;;;5473847;26;20356;-70
2024/04/12 12:44:30;;;;;;;5.93;2.90;;;;;;;;;;5482199;26;20236;-71
2024/04/12 12:47:02;;;;;;;7.63;3.50;;;;;;;;;;5449708;26;20346;-70
2024/04/12 12:49:33;;;;;;;9.15;3.83;;;;;;;;;;5467403;26;20258;-71
2024/04/12 12:52:00;;;;;;;7.25;3.08;;;;;;;;;;5471128;26;20283;-70
2024/04/12 12:54:26;;;;;;;9.50;3.25;;;;;;;;;;5469555;26;20252;-71
2024/04/12 12:56:53;;;;;;;12.40;3.30;;;;;;;;;;5460218;26;20637;-70
2024/04/12 12:59:19;;;;;;;7.20;2.78;;;;;;;;;;5464420;26;20336;-70
2024/04/12 13:01:46;;;;;;;8.32;2.85;;;;;;;;;;5468125;26;20229;-71
2024/04/12 13:04:12;;;;;;;6.57;2.95;;;;;;;;;;5472597;26;20264;-70
2024/04/12 13:06:37;;;;;;;5.82;2.75;;;;;;;;;;5456181;26;20228;-71
2024/04/12 13:09:05;;;;;;;4.55;2.28;;;;;;;;;;5462754;26;20321;-70
2024/04/12 13:11:31;;;;;;;9.27;2.70;;;;;;;;;;5470712;26;20228;-70
2024/04/12 13:13:59;;;;;;;7.50;2.40;;;;;;;;;;5471694;26;20254;-70
2024/04/12 13:16:24;;;;;;;4.25;1.73;;;;;;;;;;5463992;26;20260;-71
2024/04/12 13:18:52;;;;;;;3.40;1.92;;;;;;;;;;5478092;26;20603;-71
2024/04/12 13:21:18;;;;;;;4.25;2.40;;;;;;;;;;5460039;26;20281;-71
2024/04/12 13:23:46;;;;;;;6.65;2.22;;;;;;;;;;5474105;26;20365;-71
2024/04/12 13:26:26;;;;;;;5.55;2.33;;;;;;;;;;5460309;26;20237;-72
2024/04/12 13:28:53;;;;;;;8.68;2.30;;;;;;;;;;5462055;26;20271;-70
2024/04/12 13:31:32;;;;;;;6.10;2.20;;;;;;;;;;5459796;26;20317;-71
2024/04/12 13:33:59;;;;;;;4.00;1.67;;;;;;;;;;5466752;26;20252;-70
2024/04/12 13:36:25;;;;;;;5.18;2.03;;;;;;;;;;5446323;26;20288;-72
2024/04/12 13:38:54;;;;;;;5.43;1.70;;;;;;;;;;5455403;26;20662;-71
2024/04/12 13:41:20;;;;;;;6.28;2.40;;;;;;;;;;5465106;26;20238;-72
2024/04/12 13:43:50;;;;;;;5.50;2.28;;;;;;;;;;5469276;26;20240;-71
2024/04/12 13:52:00;;;;;;;3.83;1.83;;;;;;;;;;5398015;26;20265;-71
2024/04/12 13:54:26;;;;;;;5.10;1.92;;;;;;;;;;5482718;25;20243;-70
2024/04/12 13:56:56;;;;;;;4.80;1.42;;;;;;;;;;5502150;25;20575;-70
2024/04/12 13:59:22;;;;;;;3.88;1.42;;;;;;;;;;5490842;26;20247;-70
2024/04/12 14:01:47;;;;;;;2.13;1.30;;;;;;;;;;5495396;26;20295;-71
2024/04/12 14:04:18;;;;;;;2.40;1.20;;;;;;;;;;5503381;26;20694;-69
2024/04/12 14:06:48;;;;;;;3.53;1.35;;;;;;;;;;5491519;26;20253;-71
2024/04/12 14:09:21;;;;;;;2.47;1.17;;;;;;;;;;5475630;26;20241;-70
2024/04/12 14:11:50;;;;;;;4.30;1.10;;;;;;;;;;5460634;26;20260;-70
2024/04/12 14:14:20;;;;;;;7.25;1.30;;;;;;;;;;5479346;26;20240;-71
2024/04/12 14:16:47;;;;;;;5.78;1.38;;;;;;;;;;5483317;26;20237;-71
2024/04/12 14:19:18;;;;;;;2.60;1.20;;;;;;;;;;5474586;26;20319;-72
2024/04/12 14:21:46;;;;;;;2.03;0.75;;;;;;;;;;5490872;26;20283;-71
2024/04/12 14:24:56;;;;;;;6.93;1.27;;;;;;;;;;5465607;26;20341;-71
2024/04/12 14:26:58;;;;;;;3.28;1.15;;;;;;;;;;5458577;26;20322;-72
2024/04/12 14:29:26;;;;;;;2.22;0.95;;;;;;;;;;5479172;26;20633;-71
2024/04/12 14:31:55;;;;;;;3.15;0.95;;;;;;;;;;5453761;26;20230;-72
2024/04/12 14:34:24;;;;;;;3.25;1.00;;;;;;;;;;5480935;26;20372;-70
2024/04/12 14:36:51;;;;;;;1.50;0.68;;;;;;;;;;5474903;26;20233;-72
2024/04/12 14:39:17;;;;;;;3.00;1.00;;;;;;;;;;5455571;26;20233;-71
2024/04/12 14:41:43;;;;;;;3.47;0.77;;;;;;;;;;5475554;26;20623;-70
2024/04/12 14:44:08;;;;;;;2.33;0.88;;;;;;;;;;5455400;26;20238;-69
2024/04/12 14:46:35;;;;;;;4.97;0.90;;;;;;;;;;5467046;26;20639;-71
2024/04/12 14:49:01;;;;;;;5.13;0.88;;;;;;;;;;5481889;26;20228;-72
2024/04/12 14:51:27;;;;;;;3.08;0.80;;;;;;;;;;5467226;26;20254;-71
2024/04/12 14:53:53;;;;;;;2.42;0.85;;;;;;;;;;5487120;26;20232;-71
2024/04/12 14:56:22;;;;;;;4.68;0.95;;;;;;;;;;5488832;26;20345;-70
2024/04/12 14:58:50;;;;;;;3.33;1.20;;;;;;;;;;5471137;26;20464;-71
2024/04/12 15:01:16;;;;;;;4.47;0.77;;;;;;;;;;4721115;26;10000738;-71
2024/04/12 15:50:26;;;;;;;2.50;0.57;;;;;;;;;;5456027;26;20244;-72
2024/04/12 15:52:42;;;;;;;2.38;1.05;;;;;;;;;;5489935;26;20243;-71
2024/04/12 15:55:23;;;;;;;2.67;0.98;;;;;;;;;;5488644;26;20262;-71
2024/04/12 16:11:29;;;;;;;3.97;1.10;;;;;;;;;;5446051;26;20237;-71
2024/04/12 16:13:54;;;;;;;4.38;1.08;;;;;;;;;;5456890;26;20238;-71
2024/04/12 16:16:21;;;;;;;2.33;1.10;;;;;;;;;;5459046;26;20281;-71
2024/04/12 16:18:46;;;;;;;2.53;1.05;;;;;;;;;;5474825;26;20244;-71
2024/04/12 16:21:11;;;;;;;2.60;1.02;;;;;;;;;;5475531;26;20287;-70
2024/04/12 16:23:37;;;;;;;3.08;0.98;;;;;;;;;;5481830;26;20759;-71
2024/04/12 16:26:02;;;;;;;2.17;0.80;;;;;;;;;;5465226;26;20313;-71
2024/04/12 16:28:28;;;;;;;2.92;0.70;;;;;;;;;;5478565;26;20336;-71
2024/04/12 16:30:55;;;;;;;1.52;0.80;;;;;;;;;;5466757;26;20404;-71
2024/04/12 16:33:21;;;;;;;2.38;0.70;;;;;;;;;;5476711;26;20291;-70
2024/04/12 16:35:47;;;;;;;3.00;0.90;;;;;;;;;;5475464;26;20232;-71
2024/04/12 16:38:13;;;;;;;3.55;1.02;;;;;;;;;;5470984;26;20233;-71
2024/04/12 16:40:38;;;;;;;3.25;0.98;;;;;;;;;;5469904;26;20279;-71
2024/04/12 16:43:05;;;;;;;2.83;1.02;;;;;;;;;;5458898;26;20298;-72
2024/04/12 16:45:30;;;;;;;2.60;0.82;;;;;;;;;;5478886;26;20241;-71
2024/04/12 16:47:56;;;;;;;3.20;0.90;;;;;;;;;;5476218;26;20244;-72
2024/04/12 16:50:27;;;;;;;2.20;0.90;;;;;;;;;;5475262;25;20275;-71
2024/04/12 16:52:55;;;;;;;2.72;0.80;;;;;;;;;;5482489;26;20247;-71
2024/04/12 16:55:21;;;;;;;0.55;0.55;;;;;;;;;;5465911;26;20249;-72
2024/04/12 16:57:46;;;;;;;3.63;0.80;;;;;;;;;;5486436;26;20262;-71